Time;durP1;ratioP1;P1;durP2;ratioP2;P2;SDS_P1;SDS_P2;PMS_P1;PMS_P2;Temp;Humidity;BMP_temperature;BMP_pressure;BME280_temperature;BME280_humidity;BME280_pressure;Samples;Min_cycle;Max_cycle;Signal;HPM_P1;HPM_P2
2023/02/25 00:03:28;;;;;;;19.13;5.90;;;4.10;99.90;;;;;;2614631;54;20383;-71
2023/02/25 00:13:15;;;;;;;16.27;4.53;;;3.90;99.90;;;;;;2614745;54;20902;-70
2023/02/25 00:19:03;;;;;;;6.30;4.13;;;3.90;99.90;;;;;;2614690;54;20385;-70
2023/02/25 00:24:55;;;;;;;7.80;4.27;;;4.00;99.90;;;;;;2614428;54;20121;-70
2023/02/25 00:30:43;;;;;;;14.33;4.30;;;4.00;99.90;;;;;;2614562;54;20508;-71
2023/02/25 00:36:31;;;;;;;8.17;4.30;;;4.00;99.90;;;;;;2614994;54;20130;-69
2023/02/25 00:42:19;;;;;;;11.87;4.60;;;4.10;99.90;;;;;;2614717;54;20223;-70
2023/02/25 00:48:07;;;;;;;13.37;3.87;;;4.10;99.90;;;;;;2614468;54;20379;-70
2023/02/25 00:53:55;;;;;;;5.90;4.07;;;4.20;99.90;;;;;;2615132;54;20359;-70
2023/02/25 00:59:43;;;;;;;11.90;4.63;;;4.20;99.90;;;;;;2615342;54;20390;-71
2023/02/25 01:05:30;;;;;;;4.53;2.97;;;4.20;99.90;;;;;;2615149;54;20651;-70
2023/02/25 01:08:44;;;;;;;13.77;3.90;;;4.20;99.90;;;;;;2615243;54;20414;-70
2023/02/25 01:11:25;;;;;;;18.70;5.37;;;4.20;99.90;;;;;;2615399;54;20157;-71
2023/02/25 01:17:13;;;;;;;16.37;5.17;;;4.10;99.90;;;;;;2613910;54;21416;-71
2023/02/25 01:23:01;;;;;;;16.20;4.83;;;4.10;99.90;;;;;;2614002;54;20296;-70
2023/02/25 01:32:12;;;;;;;8.57;3.90;;;4.00;99.90;;;;;;2613732;54;20378;-71
2023/02/25 01:37:59;;;;;;;12.23;4.77;;;4.00;99.90;;;;;;2613864;54;20386;-71
2023/02/25 01:44:13;;;;;;;7.63;3.97;;;4.00;99.90;;;;;;2613612;54;20118;-69
2023/02/25 01:50:01;;;;;;;15.03;3.80;;;4.00;99.90;;;;;;2615413;54;20362;-71
2023/02/25 01:55:49;;;;;;;9.37;4.40;;;4.00;99.90;;;;;;2614804;54;20218;-70
2023/02/25 02:01:39;;;;;;;13.73;4.87;;;3.90;99.90;;;;;;2615101;54;20463;-70
2023/02/25 02:07:26;;;;;;;14.60;3.47;;;3.90;99.90;;;;;;2614761;54;21041;-71
2023/02/25 02:30:08;;;;;;;8.53;2.53;;;4.10;99.90;;;;;;2614766;54;20607;-71
2023/02/25 02:42:23;;;;;;;20.33;4.23;;;3.90;99.90;;;;;;2615007;54;20415;-70
2023/02/25 02:48:26;;;;;;;7.30;3.20;;;4.00;99.90;;;;;;2614842;54;20387;-70
2023/02/25 02:54:14;;;;;;;17.20;3.70;;;4.00;99.90;;;;;;2614611;54;20346;-70
2023/02/25 03:06:23;;;;;;;4.97;2.63;;;4.00;99.90;;;;;;2615046;54;20356;-70
2023/02/25 03:19:01;;;;;;;9.20;3.20;;;3.90;99.90;;;;;;2614731;54;20399;-70
2023/02/25 03:35:36;;;;;;;26.73;3.43;;;3.90;99.90;;;;;;2615252;39;20761;-70
2023/02/25 03:41:30;;;;;;;11.50;4.07;;;3.90;99.90;;;;;;2614820;54;20448;-71
2023/02/25 03:47:21;;;;;;;10.87;3.93;;;3.90;99.90;;;;;;2614824;54;20382;-70
2023/02/25 03:53:10;;;;;;;10.73;3.80;;;3.90;99.90;;;;;;2614814;54;20342;-71
2023/02/25 03:58:58;;;;;;;12.67;4.10;;;3.80;99.90;;;;;;2615522;39;20824;-75
2023/02/25 04:04:45;;;;;;;11.80;4.10;;;3.80;99.90;;;;;;2614671;54;20724;-75
2023/02/25 04:10:33;;;;;;;7.70;3.50;;;3.80;99.90;;;;;;2614650;54;20122;-74
2023/02/25 04:16:21;;;;;;;15.63;3.40;;;3.80;99.90;;;;;;2614838;54;20139;-74
2023/02/25 04:22:09;;;;;;;15.43;4.10;;;3.80;99.90;;;;;;2614552;54;20146;-74
2023/02/25 04:27:56;;;;;;;17.50;4.30;;;3.80;99.90;;;;;;2614785;39;20577;-74
2023/02/25 04:33:48;;;;;;;11.37;4.20;;;3.80;99.90;;;;;;2614960;54;20141;-75
2023/02/25 04:39:36;;;;;;;12.47;3.90;;;3.80;99.90;;;;;;2614632;54;20419;-74
2023/02/25 04:45:24;;;;;;;14.23;4.00;;;3.80;99.90;;;;;;2614383;54;20419;-74
2023/02/25 04:51:12;;;;;;;20.93;4.63;;;3.80;99.90;;;;;;2614419;54;20909;-75
2023/02/25 04:57:00;;;;;;;13.10;3.77;;;3.80;99.90;;;;;;2614525;54;21258;-75
2023/02/25 05:02:48;;;;;;;19.57;4.10;;;3.80;99.90;;;;;;2614428;54;20147;-74
2023/02/25 05:08:35;;;;;;;10.37;3.80;;;3.90;99.90;;;;;;2614456;54;20387;-74
2023/02/25 05:14:23;;;;;;;20.23;4.67;;;3.80;99.90;;;;;;2613980;54;20455;-74
2023/02/25 05:20:11;;;;;;;11.23;3.30;;;3.80;99.90;;;;;;2614468;54;20151;-74
2023/02/25 05:25:59;;;;;;;9.10;3.13;;;3.90;99.90;;;;;;2614627;39;20760;-74
2023/02/25 05:31:50;;;;;;;10.90;2.80;;;3.90;99.90;;;;;;2614647;54;20127;-75
2023/02/25 05:37:39;;;;;;;19.37;3.60;;;3.90;99.90;;;;;;2614790;54;20363;-74
2023/02/25 05:43:26;;;;;;;10.23;4.07;;;3.90;99.90;;;;;;2614691;54;20920;-74
2023/02/25 05:49:14;;;;;;;7.73;3.50;;;3.90;99.90;;;;;;2615297;54;20392;-74
2023/02/25 05:55:02;;;;;;;18.30;3.40;;;3.90;99.90;;;;;;2615380;31;20690;-75
2023/02/25 06:00:50;;;;;;;15.53;4.00;;;4.00;99.90;;;;;;2615206;54;20366;-74
2023/02/25 06:06:38;;;;;;;12.37;3.90;;;4.00;99.90;;;;;;2614902;54;20153;-74
2023/02/25 06:16:38;;;;;;;16.57;4.43;;;4.00;99.90;;;;;;2615306;54;20514;-74
2023/02/25 06:22:26;;;;;;;16.60;4.47;;;4.00;99.90;;;;;;2615694;39;20899;-74
2023/02/25 06:28:13;;;;;;;11.90;5.20;;;4.10;99.90;;;;;;2614982;54;20367;-74
2023/02/25 06:34:01;;;;;;;13.20;3.60;;;4.10;99.90;;;;;;2614697;54;20118;-74
2023/02/25 06:39:49;;;;;;;11.90;3.73;;;4.10;99.90;;;;;;2614751;54;20123;-74
2023/02/25 06:45:36;;;;;;;11.60;4.40;;;4.20;99.90;;;;;;2614791;46;20146;-75
2023/02/25 06:51:24;;;;;;;9.50;4.43;;;4.20;99.90;;;;;;2615353;39;20529;-75
2023/02/25 06:57:12;;;;;;;14.23;4.03;;;4.20;99.90;;;;;;2614862;54;20703;-75
2023/02/25 07:03:01;;;;;;;10.33;4.47;;;4.30;99.90;;;;;;2614798;54;20119;-75
2023/02/25 07:08:49;;;;;;;10.03;3.97;;;4.30;99.90;;;;;;2614933;54;20499;-74
2023/02/25 07:14:49;;;;;;;10.20;4.20;;;4.40;99.90;;;;;;2612885;54;20831;-74
2023/02/25 07:20:38;;;;;;;13.93;3.30;;;4.50;99.90;;;;;;2613587;54;20283;-74
2023/02/25 07:26:27;;;;;;;8.40;3.67;;;4.40;99.90;;;;;;2613122;54;20457;-75
2023/02/25 07:32:14;;;;;;;11.63;3.80;;;4.10;99.90;;;;;;2613490;54;21000;-76
2023/02/25 07:38:01;;;;;;;17.00;3.60;;;3.90;99.90;;;;;;2613246;54;20150;-75
2023/02/25 07:43:48;;;;;;;18.60;4.00;;;3.90;99.90;;;;;;2613275;54;20126;-74
2023/02/25 07:49:35;;;;;;;15.13;4.80;;;4.00;99.90;;;;;;2613165;54;20126;-74
2023/02/25 07:55:23;;;;;;;17.27;3.80;;;3.90;99.90;;;;;;2614461;54;20118;-73
2023/02/25 08:07:36;;;;;;;17.73;4.73;;;3.90;99.90;;;;;;2614558;54;20391;-74
2023/02/25 08:16:55;;;;;;;11.47;5.30;;;4.20;99.90;;;;;;2614504;54;20412;-74
2023/02/25 08:22:43;;;;;;;22.93;7.83;;;4.90;99.90;;;;;;2614411;54;20435;-74
2023/02/25 08:28:31;;;;;;;10.30;5.30;;;7.10;99.90;;;;;;2614269;54;20114;-75
2023/02/25 08:34:19;;;;;;;11.13;5.10;;;7.00;99.90;;;;;;2614203;54;20334;-74
2023/02/25 08:40:09;;;;;;;13.57;4.73;;;6.20;99.90;;;;;;2614270;54;20126;-74
2023/02/25 08:45:57;;;;;;;17.03;5.60;;;7.30;99.90;;;;;;2614248;54;20921;-74
2023/02/25 08:51:44;;;;;;;14.03;5.67;;;6.30;99.90;;;;;;2614467;54;20960;-74
2023/02/25 08:57:32;;;;;;;13.80;6.37;;;6.30;99.90;;;;;;2614481;54;20192;-74
2023/02/25 09:03:20;;;;;;;13.67;4.73;;;5.70;99.90;;;;;;2614245;54;20110;-74
2023/02/25 09:09:08;;;;;;;9.80;4.63;;;5.40;99.90;;;;;;2614245;54;20130;-74
2023/02/25 09:18:24;;;;;;;17.60;3.67;;;5.30;99.90;;;;;;2615266;54;20482;-74
2023/02/25 09:24:12;;;;;;;9.90;3.17;;;5.40;99.90;;;;;;2614717;54;20367;-74
2023/02/25 09:29:59;;;;;;;8.13;3.30;;;5.40;99.90;;;;;;2614847;54;20146;-75
2023/02/25 09:35:47;;;;;;;9.77;4.93;;;5.30;99.90;;;;;;2615140;54;20251;-71
2023/02/25 09:54:46;;;;;;;8.63;3.60;;;5.20;99.90;;;;;;2614780;54;20370;-70
2023/02/25 10:18:03;;;;;;;3.40;1.80;;;4.90;99.90;;;;;;2613988;39;20762;-71
2023/02/25 10:41:10;;;;;;;4.93;3.47;;;6.30;99.90;;;;;;2613897;54;21024;-71
2023/02/25 10:47:05;;;;;;;5.30;3.00;;;6.30;99.90;;;;;;2614974;54;20873;-71
2023/02/25 10:52:57;;;;;;;4.70;3.20;;;6.00;99.90;;;;;;2614837;54;20399;-72
2023/02/25 11:05:35;;;;;;;2.53;2.23;;;6.20;99.90;;;;;;2614622;54;20378;-71
2023/02/25 11:11:31;;;;;;;3.50;2.50;;;5.00;99.90;;;;;;2614681;54;20375;-71
2023/02/25 11:26:55;;;;;;;9.93;3.17;;;8.10;99.90;;;;;;2614638;54;20375;-71
2023/02/25 11:32:47;;;;;;;6.93;3.63;;;10.30;57.20;;;;;;2614116;54;20382;-71
2023/02/25 11:38:41;;;;;;;4.33;3.97;;;12.00;24.20;;;;;;2614564;54;20363;-71
2023/02/25 12:10:42;;;;;;;6.93;3.90;;;5.60;65.20;;;;;;2614269;54;20374;-71
2023/02/25 12:20:42;;;;;;;8.87;4.00;;;12.00;12.20;;;;;;2614380;54;20411;-71
2023/02/25 12:33:18;;;;;;;6.77;5.83;;;7.40;15.60;;;;;;2614412;54;20351;-70
2023/02/25 12:39:11;;;;;;;7.27;6.57;;;6.90;7.60;;;;;;2614399;54;20431;-71
2023/02/25 13:47:58;;;;;;;9.93;9.13;;;10.70;1.00;;;;;;2613240;54;20480;-75
2023/02/25 13:54:16;;;;;;;9.90;9.30;;;11.00;1.00;;;;;;2613781;39;20835;-74
2023/02/25 14:13:19;;;;;;;9.97;9.27;;;11.20;1.00;;;;;;2613130;54;20593;-74
2023/02/25 14:16:13;;;;;;;10.07;9.37;;;12.00;1.00;;;;;;2613461;51;20395;-74
2023/02/25 14:25:16;;;;;;;10.43;9.50;;;8.80;1.00;;;;;;2614880;54;20395;-74
2023/02/25 14:47:32;;;;;;;8.90;8.43;;;8.40;1.00;;;;;;2614685;54;20419;-74
2023/02/25 15:20:42;;;;;;;11.03;10.10;;;9.60;1.00;;;;;;2614763;54;20949;-74
2023/02/25 15:26:47;;;;;;;10.70;10.20;;;9.80;1.00;;;;;;2614399;54;20952;-74
2023/02/25 15:32:56;;;;;;;10.90;10.10;;;8.90;1.00;;;;;;2614296;54;20439;-74
2023/02/25 15:38:49;;;;;;;10.40;9.80;;;9.90;1.00;;;;;;2614739;54;20487;-73
2023/02/25 15:44:44;;;;;;;9.50;9.00;;;7.90;1.00;;;;;;2614520;54;20399;-74
2023/02/25 16:01:32;;;;;;;10.93;9.97;;;8.20;1.00;;;;;;2614544;54;20403;-74
2023/02/25 16:13:35;;;;;;;8.57;8.07;;;8.20;1.00;;;;;;2614620;39;20831;-75
2023/02/25 16:16:16;;;;;;;9.03;8.63;;;8.30;1.00;;;;;;2613850;46;20533;-74
2023/02/25 16:18:47;;;;;;;9.20;8.70;;;8.50;1.00;;;;;;2614256;54;20424;-74
2023/02/25 16:24:36;;;;;;;9.80;9.00;;;7.30;1.00;;;;;;2614415;54;20949;-73
2023/02/25 16:30:34;;;;;;;12.57;9.00;;;7.40;1.00;;;;;;2614625;54;20142;-74
2023/02/25 16:42:53;;;;;;;10.43;9.90;;;5.40;1.00;;;;;;2614274;54;20395;-73
2023/02/25 16:48:49;;;;;;;11.57;10.60;;;4.90;1.00;;;;;;2614219;54;20370;-74
2023/02/25 16:54:38;;;;;;;11.23;10.33;;;4.70;1.00;;;;;;2614852;39;20866;-73
2023/02/25 17:00:26;;;;;;;10.53;9.83;;;4.40;1.00;;;;;;2614284;54;20442;-74
2023/02/25 17:03:31;;;;;;;10.00;9.60;;;4.30;1.00;;;;;;2614746;39;20936;-74
2023/02/25 17:06:07;;;;;;;10.43;9.93;;;4.20;1.00;;;;;;2614310;54;20398;-73
2023/02/25 17:11:55;;;;;;;11.20;10.43;;;4.20;1.00;;;;;;2614708;54;20378;-74
2023/02/25 17:27:23;;;;;;;11.70;10.90;;;3.80;1.00;;;;;;2614416;54;20865;-75
2023/02/25 17:33:17;;;;;;;11.40;10.70;;;3.60;1.00;;;;;;2614774;39;20717;-74
2023/02/25 17:39:14;;;;;;;13.50;11.93;;;3.50;1.00;;;;;;2614990;54;20507;-74
2023/02/25 17:45:07;;;;;;;11.90;11.30;;;3.20;1.00;;;;;;2615168;54;20395;-75
2023/02/25 17:50:59;;;;;;;11.40;10.80;;;3.10;1.00;;;;;;2615052;54;20387;-74
2023/02/25 18:03:23;;;;;;;12.33;11.47;;;3.00;1.00;;;;;;2615294;39;20873;-73
2023/02/25 18:16:26;;;;;;;12.13;11.17;;;2.80;1.00;;;;;;2613629;54;20436;-73
2023/02/25 18:25:50;;;;;;;15.53;13.37;;;2.50;3.50;;;;;;2613251;46;20448;-74
2023/02/25 18:31:39;;;;;;;13.37;12.13;;;2.30;6.00;;;;;;2613464;54;20862;-75
2023/02/25 18:37:30;;;;;;;15.43;13.93;;;2.30;8.30;;;;;;2613354;54;21078;-74
2023/02/25 18:46:39;;;;;;;14.63;13.20;;;2.00;11.00;;;;;;2613486;54;20390;-74
2023/02/25 18:52:26;;;;;;;13.13;12.07;;;2.00;12.30;;;;;;2613677;39;20617;-74
2023/02/25 18:58:15;;;;;;;11.47;10.73;;;2.00;12.00;;;;;;2613264;54;20138;-74
2023/02/25 19:04:04;;;;;;;13.87;12.10;;;1.80;14.60;;;;;;2614617;54;20475;-74
2023/02/25 19:09:51;;;;;;;13.27;12.47;;;1.60;19.80;;;;;;2614817;54;20390;-74
2023/02/25 19:15:39;;;;;;;13.17;11.97;;;1.50;24.10;;;;;;2614606;54;20139;-74
2023/02/25 19:21:27;;;;;;;15.13;13.73;;;1.20;33.40;;;;;;2615193;39;20627;-74
2023/02/25 19:27:21;;;;;;;15.10;13.67;;;0.70;49.90;;;;;;2614893;54;20637;-75
2023/02/25 19:33:11;;;;;;;14.83;12.50;;;0.60;70.90;;;;;;2614811;54;20378;-74
2023/02/25 19:38:59;;;;;;;13.77;12.53;;;0.40;81.80;;;;;;2614690;54;20377;-75
2023/02/25 19:44:46;;;;;;;21.53;19.67;;;0.30;93.30;;;;;;2614785;54;20130;-74
2023/02/25 19:50:35;;;;;;;22.80;18.83;;;0.10;98.70;;;;;;2614622;54;20218;-74
2023/02/25 19:56:23;;;;;;;19.77;17.70;;;0.10;99.90;;;;;;2614364;54;20377;-73
2023/02/25 20:02:14;;;;;;;17.03;15.33;;;-0.10;99.90;;;;;;2614527;54;20158;-74
2023/02/25 20:08:02;;;;;;;16.27;14.87;;;-0.40;99.90;;;;;;2614732;54;21242;-75
2023/02/25 20:13:49;;;;;;;16.00;14.43;;;-0.50;99.90;;;;;;2614423;54;20243;-75
2023/02/25 20:33:32;;;;;;;11.67;10.77;;;-0.70;99.90;;;;;;2613265;39;21159;-73
2023/02/25 20:39:37;;;;;;;13.00;9.67;;;-0.60;99.90;;;;;;2612755;54;20429;-74
2023/02/25 20:45:26;;;;;;;11.20;10.10;;;0.10;99.90;;;;;;2613194;54;20527;-74
2023/02/25 20:51:13;;;;;;;14.80;11.53;;;0.10;99.90;;;;;;2612931;54;20405;-74
2023/02/25 20:57:01;;;;;;;9.63;8.77;;;0.20;99.90;;;;;;2613004;54;20223;-75
2023/02/25 21:02:48;;;;;;;9.10;8.50;;;0.60;93.20;;;;;;2614588;54;20419;-75
2023/02/25 21:08:36;;;;;;;10.20;9.20;;;0.50;93.00;;;;;;2615269;54;20207;-75
2023/02/25 21:14:24;;;;;;;13.13;9.50;;;0.80;86.80;;;;;;2615242;54;20672;-74
2023/02/25 21:23:35;;;;;;;31.37;20.40;;;0.80;90.70;;;;;;2614887;54;20399;-73
2023/02/25 21:29:22;;;;;;;14.70;9.60;;;0.80;93.70;;;;;;2615024;54;20351;-75
2023/02/25 21:35:13;;;;;;;10.77;9.60;;;0.60;94.70;;;;;;2615481;54;20121;-74
2023/02/25 21:41:16;;;;;;;9.57;8.73;;;0.60;96.40;;;;;;2615081;54;20395;-73
2023/02/25 21:47:04;;;;;;;11.23;8.57;;;0.60;98.20;;;;;;2615108;54;20362;-75
2023/02/25 21:52:51;;;;;;;11.17;9.07;;;0.20;99.90;;;;;;2614853;54;20137;-75
2023/02/25 21:58:39;;;;;;;9.00;8.10;;;0.40;99.90;;;;;;2614976;54;20166;-74
2023/02/25 22:04:26;;;;;;;9.40;8.60;;;0.20;99.90;;;;;;2615459;39;20534;-75
2023/02/25 22:10:14;;;;;;;9.53;8.80;;;0.50;99.90;;;;;;2615149;54;20129;-75
2023/02/25 22:16:02;;;;;;;8.90;8.10;;;0.20;99.90;;;;;;2614976;54;20402;-74
2023/02/25 22:19:01;;;;;;;10.40;9.50;;;0.20;99.90;;;;;;2614815;54;20407;-75
2023/02/25 22:21:29;;;;;;;9.53;8.63;;;0.30;99.90;;;;;;2614146;54;20413;-75
2023/02/25 22:27:17;;;;;;;14.93;11.57;;;0.10;99.90;;;;;;2615075;54;20589;-74
2023/02/25 22:33:05;;;;;;;9.57;8.60;;;-0.10;99.90;;;;;;2615079;39;20638;-74
2023/02/25 22:38:53;;;;;;;8.87;8.17;;;0.00;99.90;;;;;;2614927;54;20174;-75
2023/02/25 22:44:40;;;;;;;9.10;8.40;;;-0.20;99.90;;;;;;2614835;54;20644;-74
2023/02/25 22:50:28;;;;;;;8.67;7.97;;;-0.40;99.90;;;;;;2615163;54;20243;-74
2023/02/25 22:53:31;;;;;;;8.90;8.00;;;-0.40;99.90;;;;;;2614417;39;20756;-74
2023/02/25 22:56:04;;;;;;;8.90;8.00;;;-0.50;99.90;;;;;;2614858;54;20677;-75
2023/02/25 23:01:52;;;;;;;8.07;7.10;;;-0.40;99.90;;;;;;2614439;54;20475;-74
2023/02/25 23:07:41;;;;;;;8.47;7.50;;;-0.30;99.90;;;;;;2615175;54;20159;-74
2023/02/25 23:13:28;;;;;;;7.80;7.20;;;-0.10;99.90;;;;;;2614627;54;20487;-74
2023/02/25 23:23:37;;;;;;;8.53;6.70;;;0.10;99.90;;;;;;2614621;54;20390;-74
2023/02/25 23:29:24;;;;;;;7.87;7.10;;;0.00;99.90;;;;;;2615171;39;20799;-74
2023/02/25 23:35:12;;;;;;;8.70;7.90;;;0.00;99.90;;;;;;2614625;54;20134;-75
2023/02/25 23:41:00;;;;;;;7.60;7.10;;;0.10;99.90;;;;;;2614724;54;20164;-74
2023/02/25 23:46:48;;;;;;;8.10;7.50;;;0.10;99.90;;;;;;2614657;54;20157;-75
2023/02/25 23:52:35;;;;;;;7.60;7.00;;;0.00;99.90;;;;;;2614419;54;20182;-75
2023/02/25 23:58:23;;;;;;;8.17;7.60;;;0.00;99.90;;;;;;2614872;54;20133;-75
